Latest Weather Observations for Cape Leeuwin

IDW60801

Issued at 5:53 pm WST Sunday 26 September 2021 (issued every 10 minutes, with the page automatically refreshed every 10 minutes)

About weather observations | Map of weather stations | Latest weather observations for WA | Other Formats
Station Details ID: 009518 Name: CAPE LEEUWIN Lat: -34.37 Lon: 115.14 Height: 13.0 m
Data from the previous 72 hours. | See also: Recent months at Cape Leeuwin
Date/Time
WST
Temp
°C
App
Temp
°C
Dew
Point
°C
Rel
Hum
%
Delta-T
°C
Wind Press
QNH
hPa
Press
MSL
hPa
Rain since
9am
mm
Dir  Spd
km/h
Gust
km/h
Spd
kts
Gust
kts
26/05:30pm 16.0 13.4 13.3 84 1.5 SSE 19 22 10 12 1007.6 1007.6 0.0
26/05:00pm 15.7 13.0 12.8 83 1.6 SSE 19 24 10 13 1007.3 1007.3 0.0
26/04:30pm 16.3 13.6 12.8 80 1.9 SSW 19 26 10 14 1007.0 1007.0 0.0
26/04:00pm 16.6 14.6 12.8 78 2.1 SSW 15 20 8 11 1006.6 1006.6 0.0
26/03:30pm 16.4 14.6 12.0 75 2.4 SSW 13 17 7 9 1006.4 1006.4 0.0
26/03:00pm 17.0 14.9 12.5 75 2.5 SSW 15 20 8 11 1006.1 1006.1 0.0
26/02:30pm 16.5 14.6 11.9 74 2.5 SSW 13 17 7 9 1006.0 1006.0 0.0
26/02:00pm 17.0 15.6 12.3 74 2.6 SSW 11 15 6 8 1005.8 1005.8 0.0
26/01:30pm 16.7 15.7 12.3 75 2.4 W 9 13 5 7 1005.8 1005.8 0.0
26/01:00pm 17.1 15.9 12.8 76 2.4 WSW 11 13 6 7 1005.8 1005.8 0.0
26/12:30pm 16.1 14.8 12.5 79 2.0 SW 11 15 6 8 1005.8 1005.8 0.0
26/12:00pm 15.7 13.1 12.1 79 2.0 WSW 17 17 9 9 1006.0 1006.0 0.0
26/11:30am 15.5 12.4 12.1 80 1.9 W 20 24 11 13 1006.1 1006.1 0.0
26/11:00am 15.6 12.5 11.6 77 2.2 W 19 22 10 12 1006.2 1006.2 0.0
26/10:30am 15.8 13.5 11.8 77 2.2 WNW 15 20 8 11 1006.1 1006.1 0.0
26/10:00am 15.6 13.1 11.2 75 2.4 NW 15 19 8 10 1006.3 1006.3 0.0
26/09:30am 15.2 13.7 10.4 73 2.5 WNW 9 13 5 7 1006.3 1006.3 0.0
26/09:00am 15.4 15.0 11.0 75 2.4 NNE 4 11 2 6 1006.1 1006.1 0.0
26/08:30am 14.8 13.5 11.2 79 1.9 NNE 9 13 5 7 1006.1 1006.1 0.0
26/08:00am 14.2 11.6 10.6 79 1.9 NE 15 20 8 11 1006.2 1006.2 0.0
26/07:30am 14.2 11.1 10.4 78 2.0 ENE 17 20 9 11 1006.0 1006.0 0.0
26/07:00am 14.0 10.9 10.4 79 1.9 ENE 17 20 9 11 1005.7 1005.7 0.0
26/06:30am 13.9 10.4 10.3 79 1.9 ENE 19 24 10 13 1005.5 1005.5 0.0
26/06:00am 14.1 9.7 10.5 79 1.9 ENE 24 30 13 16 1005.6 1005.6 0.0
26/05:30am 14.1 10.2 10.7 80 1.8 E 22 28 12 15 1005.5 1005.5 0.0
26/05:00am 14.0 9.2 10.2 78 2.0 E 26 30 14 16 1005.6 1005.6 0.0
26/04:30am 14.3 9.6 10.5 78 2.0 ENE 26 32 14 17 1005.5 1005.5 0.0
26/04:00am 14.4 8.9 10.4 77 2.1 E 30 35 16 19 1005.5 1005.5 0.0
26/03:30am 14.5 8.1 10.7 78 2.0 E 35 39 19 21 1006.0 1006.0 0.0
26/03:00am 14.1 8.3 10.7 80 1.8 E 32 35 17 19 1006.3 1006.3 0.0
26/02:30am 13.7 8.6 10.5 81 1.7 ESE 28 32 15 17 1006.5 1006.5 0.0
26/02:00am 13.9 8.8 10.5 80 1.8 ESE 28 35 15 19 1007.0 1007.0 0.0
26/01:30am 13.8 7.8 10.0 78 2.0 E 32 37 17 20 1007.4 1007.4 0.0
26/01:00am 14.2 8.2 10.0 76 2.2 E 32 35 17 19 1007.9 1007.9 0.0
26/12:30am 14.2 7.5 9.6 74 2.4 E 35 43 19 23 1008.1 1008.1 0.0
26/12:00am 14.3 6.0 9.5 73 2.5 E 43 46 23 25 1008.1 1008.1 0.0
 
Date/Time
WST
Temp
°C
App
Temp
°C
Dew
Point
°C
Rel
Hum
%
Delta-T
°C
Wind Press
QNH
hPa
Press
MSL
hPa
Rain since
9am
mm
Dir  Spd
km/h
Gust
km/h
Spd
kts
Gust
kts
25/11:30pm 14.5 6.2 9.3 71 2.7 E 43 50 23 27 1008.3 1008.3 0.0
25/11:00pm 14.7 7.2 9.3 70 2.8 E 39 44 21 24 1008.8 1008.8 0.0
25/10:30pm 14.9 7.8 9.5 70 2.8 E 37 43 20 23 1009.5 1009.5 0.0
25/10:00pm 15.1 8.1 9.9 71 2.7 E 37 44 20 24 1010.0 1010.0 0.0
25/09:30pm 15.3 7.4 9.4 68 3.0 E 41 48 22 26 1010.0 1010.0 0.0
25/09:00pm 15.7 7.4 10.2 70 2.9 E 44 50 24 27 1010.0 1010.0 0.0
25/08:30pm 16.1 7.5 10.2 68 3.1 E 46 52 25 28 1009.7 1009.7 0.0
25/08:00pm 16.4 8.8 10.5 68 3.1 E 41 46 22 25 1009.6 1009.6 0.0
25/07:30pm 16.6 9.4 9.3 62 3.8 ENE 37 46 20 25 1009.5 1009.5 0.0
25/07:00pm 16.9 10.1 9.3 61 4.0 ENE 35 43 19 23 1009.8 1009.8 0.0
25/06:30pm 17.1 10.6 10.2 64 3.7 ENE 35 44 19 24 1009.8 1009.8 0.0
25/06:00pm 17.4 11.8 12.1 71 2.9 E 33 37 18 20 1009.6 1009.6 0.0
25/05:30pm 17.1 10.3 13.0 77 2.3 ESE 41 48 22 26 1009.7 1009.7 0.0
25/05:00pm 17.0 10.6 13.1 78 2.2 ESE 39 46 21 25 1010.0 1010.0 0.0
25/04:30pm 16.9 9.6 12.8 77 2.3 SE 43 54 23 29 1009.9 1009.9 0.0
25/04:00pm 16.8 9.4 12.3 75 2.5 SE 43 54 23 29 1009.9 1009.9 0.0
25/03:30pm 16.7 9.1 11.8 73 2.7 SE 43 54 23 29 1010.1 1010.1 0.0
25/03:00pm 17.1 9.6 12.2 73 2.7 SE 43 50 23 27 1010.5 1010.5 0.0
25/02:30pm 17.2 9.7 11.0 67 3.3 SE 41 50 22 27 1011.0 1011.0 0.0
25/02:00pm 17.0 9.8 10.4 65 3.5 SE 39 46 21 25 1011.3 1011.3 0.0
25/01:30pm 17.1 9.7 10.0 63 3.7 SE 39 48 21 26 1011.7 1011.7 0.0
25/01:00pm 17.6 10.4 10.5 63 3.8 SE 39 48 21 26 1012.5 1012.5 0.0
25/12:30pm 17.0 10.3 9.7 62 3.8 ESE 35 44 19 24 1013.4 1013.4 0.0
25/12:00pm 16.8 9.7 9.5 62 3.8 ESE 37 44 20 24 1014.4 1014.4 0.0
25/11:30am 16.1 8.3 8.1 59 4.0 ESE 39 44 21 24 1015.1 1015.1 0.0
25/11:00am 15.8 8.0 8.3 61 3.8 ESE 39 46 21 25 1015.5 1015.5 0.0
25/10:30am 15.8 8.4 8.5 62 3.7 ESE 37 46 20 25 1016.1 1016.1 0.0
25/10:00am 14.8 7.3 7.8 63 3.5 E 37 44 20 24 1016.7 1016.7 0.0
25/09:30am 14.6 6.8 8.1 65 3.2 E 39 46 21 25 1017.3 1017.3 0.0
25/09:00am 13.4 5.8 7.4 67 2.9 E 37 44 20 24 1017.9 1017.9 0.0
25/08:30am 13.6 6.2 8.2 70 2.7 ESE 37 44 20 24 1018.3 1018.3 0.0
25/08:00am 12.9 4.1 7.1 68 2.8 ESE 43 50 23 27 1018.5 1018.5 0.0
25/07:30am 12.7 5.0 7.2 69 2.7 ESE 37 44 20 24 1018.9 1018.9 0.0
25/07:00am 12.4 4.7 6.9 69 2.6 ESE 37 46 20 25 1019.1 1019.1 0.0
25/06:30am 12.1 3.2 6.8 70 2.5 E 43 54 23 29 1019.1 1019.1 0.0
25/06:00am 12.0 3.1 6.7 70 2.5 E 43 52 23 28 1019.3 1019.3 0.0
25/05:30am 11.8 2.8 6.3 69 2.6 E 43 54 23 29 1019.3 1019.3 0.0
25/05:00am 11.8 2.6 6.3 69 2.6 E 44 54 24 29 1019.5 1019.5 0.0
25/04:30am 11.5 1.8 5.6 67 2.7 E 46 54 25 29 1019.6 1019.6 0.0
25/04:00am 11.8 1.4 5.9 67 2.7 E 50 57 27 31 1019.8 1019.8 0.0
25/03:30am 12.0 2.8 6.5 69 2.6 E 44 52 24 28 1020.1 1020.1 0.0
25/03:00am 11.8 3.1 6.1 68 2.7 ENE 41 48 22 26 1020.6 1020.6 0.0
25/02:30am 11.9 4.0 6.0 67 2.8 E 37 46 20 25 1021.0 1021.0 0.0
25/02:00am 12.1 5.0 6.4 68 2.7 E 33 41 18 22 1021.1 1021.1 0.0
25/01:30am 12.4 4.5 6.2 66 2.9 E 37 50 20 27 1021.2 1021.2 0.0
25/01:00am 12.9 4.4 7.1 68 2.8 E 41 48 22 26 1021.4 1021.4 0.0
25/12:30am 13.1 5.1 7.3 68 2.8 ESE 39 46 21 25 1021.8 1021.8 0.0
25/12:00am 13.2 4.7 6.8 65 3.1 ESE 41 50 22 27 1021.9 1021.9 0.0
 
Date/Time
WST
Temp
°C
App
Temp
°C
Dew
Point
°C
Rel
Hum
%
Delta-T
°C
Wind Press
QNH
hPa
Press
MSL
hPa
Rain since
9am
mm
Dir  Spd
km/h
Gust
km/h
Spd
kts
Gust
kts
24/11:30pm 13.3 4.2 6.6 64 3.2 ESE 44 54 24 29 1022.2 1022.2 0.0
24/11:00pm 13.5 4.6 6.8 64 3.2 ESE 43 50 23 27 1022.6 1022.6 0.0
24/10:30pm 13.7 5.1 6.6 62 3.4 ESE 41 50 22 27 1022.9 1022.9 0.0
24/10:00pm 13.8 4.7 6.9 63 3.3 ESE 44 52 24 28 1022.9 1022.9 0.0
24/09:30pm 14.1 5.0 8.3 68 2.9 ESE 46 56 25 30 1022.9 1022.9 0.0
24/09:00pm 14.2 4.6 7.9 66 3.1 ESE 48 59 26 32 1022.9 1022.9 0.0
24/08:30pm 14.2 4.9 7.7 65 3.2 ESE 46 57 25 31 1023.0 1023.0 0.0
24/08:00pm 14.4 5.9 8.6 68 2.9 ESE 43 57 23 31 1023.0 1023.0 0.0
24/07:30pm 14.3 5.9 8.9 70 2.7 SE 43 54 23 29 1023.0 1023.0 0.0
24/07:00pm 14.1 5.8 9.3 73 2.4 SE 43 54 23 29 1023.1 1023.1 0.0
24/06:30pm 14.0 5.5 9.2 73 2.4 SE 44 54 24 29 1023.0 1023.0 0.0
24/06:00pm 14.1 6.2 9.3 73 2.4 SE 41 52 22 28 1023.2 1023.2 0.0
24/05:30pm 14.3 6.3 9.1 71 2.6 SE 41 50 22 27 1023.3 1023.3 0.0
24/05:00pm 14.6 6.6 9.0 69 2.8 SE 41 54 22 29 1023.3 1023.3 0.0
24/04:30pm 14.9 7.3 9.1 68 3.0 SE 39 50 21 27 1023.4 1023.4 0.0
24/04:00pm 15.0 7.0 8.9 67 3.1 SE 41 50 22 27 1023.6 1023.6 0.0
24/03:30pm 15.2 7.9 8.7 65 3.3 SE 37 50 20 27 1023.7 1023.7 0.0
24/03:00pm 15.6 8.8 9.3 66 3.2 SE 35 44 19 24 1024.0 1024.0 0.0
24/02:30pm 15.9 9.4 8.9 63 3.6 SE 33 44 18 24 1024.2 1024.2 0.0
24/02:00pm 16.1 9.3 7.6 57 4.2 SE 33 44 18 24 1024.5 1024.5 0.0
24/01:30pm 15.9 9.3 7.9 59 4.0 SE 32 39 17 21 1024.9 1024.9 0.0
24/01:00pm 15.9 9.5 6.9 55 4.4 SE 30 37 16 20 1025.5 1025.5 0.0
24/12:30pm 16.1 9.3 7.1 55 4.5 SE 32 39 17 21 1025.9 1025.9 0.0
24/12:00pm 15.1 8.8 7.4 60 3.8 SE 30 37 16 20 1026.4 1026.4 0.0
24/11:30am 14.8 8.0 7.1 60 3.8 SE 32 39 17 21 1026.7 1026.7 0.0
24/11:00am 14.9 9.0 7.5 61 3.6 SE 28 37 15 20 1027.1 1027.1 0.0
24/10:30am 14.5 8.3 6.1 57 4.0 SE 28 39 15 21 1027.4 1027.4 0.0
24/10:00am 14.2 7.5 5.8 57 4.0 ESE 30 37 16 20 1027.7 1027.7 0.0
24/09:30am 13.9 7.4 6.7 62 3.5 SE 30 35 16 19 1027.7 1027.7 0.0
24/09:00am 14.3 7.5 6.9 61 3.6 SE 32 44 17 24 1027.7 1027.7 0.0
24/08:30am 14.2 7.5 7.5 64 3.3 SE 32 41 17 22 1027.8 1027.8 0.0
24/08:00am 13.7 6.7 7.0 64 3.2 SE 33 43 18 23 1027.7 1027.7 0.0
24/07:30am 13.4 7.3 6.5 63 3.3 SE 28 35 15 19 1027.7 1027.7 0.0
24/07:00am 13.6 6.8 6.9 64 3.2 ESE 32 39 17 21 1027.4 1027.4 0.0
24/06:30am 13.7 6.9 7.5 66 3.0 SE 33 43 18 23 1027.2 1027.2 0.0
24/06:00am 13.7 7.3 7.0 64 3.2 SE 30 37 16 20 1027.1 1027.1 0.0
24/05:30am 13.6 7.1 6.7 63 3.3 SE 30 41 16 22 1027.1 1027.1 0.0
24/05:00am 13.3 6.3 5.9 61 3.5 ESE 32 46 17 25 1026.9 1026.9 0.0
24/04:30am 13.3 7.2 6.4 63 3.3 SE 28 46 15 25 1026.9 1026.9 0.0
24/04:28am 13.1 6.9 6.0 62 3.4 SE 28 46 15 25 1026.9 1026.9 0.0
24/04:00am 13.3 5.8 6.4 63 3.3 SE 35 46 19 25 1026.9 1026.9 0.0
24/03:30am 13.3 6.3 6.2 62 3.4 SE 32 44 17 24 1026.9 1026.9 0.0
24/03:00am 13.2 5.4 5.1 58 3.7 SE 35 46 19 25 1027.0 1027.0 0.0
24/02:30am 13.7 7.1 7.7 67 3.0 SE 32 41 17 22 1027.0 1027.0 0.0
24/02:00am 13.6 6.6 6.2 61 3.5 SE 32 44 17 24 1027.2 1027.2 0.0
24/01:30am 13.5 6.2 5.4 58 3.8 SE 33 44 18 24 1027.4 1027.4 0.0
24/01:00am 13.6 6.5 6.5 62 3.4 SE 33 43 18 23 1027.4 1027.4 0.0
24/12:30am 13.4 6.0 6.7 64 3.2 SE 35 48 19 26 1027.6 1027.6 0.0
24/12:00am 13.6 6.3 7.2 65 3.1 ESE 35 46 19 25 1027.6 1027.6 0.0
 
Date/Time
WST
Temp
°C
App
Temp
°C
Dew
Point
°C
Rel
Hum
%
Delta-T
°C
Wind Press
QNH
hPa
Press
MSL
hPa
Rain since
9am
mm
Dir  Spd
km/h
Gust
km/h
Spd
kts
Gust
kts
23/11:34pm 13.7 7.1 7.7 67 3.0 SE 32 50 17 27 1027.7 1027.7 0.0
23/11:30pm 13.4 6.0 6.7 64 3.2 SE 35 50 19 27 1027.7 1027.7 0.0
23/11:00pm 13.5 6.2 7.3 66 3.0 SE 35 48 19 26 1027.8 1027.8 0.0
23/10:30pm 13.4 5.9 6.3 62 3.4 SE 35 43 19 23 1027.9 1027.9 0.0
23/10:00pm 13.5 5.7 6.6 63 3.3 SE 37 48 20 26 1028.1 1028.1 0.0
23/09:30pm 13.7 6.0 7.2 65 3.2 SE 37 48 20 26 1028.1 1028.1 0.0
23/09:00pm 13.7 5.9 6.6 62 3.4 SE 37 48 20 26 1028.1 1028.1 0.0
23/08:30pm 13.9 7.0 7.2 64 3.3 SE 33 48 18 26 1028.0 1028.0 0.0
23/08:29pm 13.8 7.0 7.1 64 3.3 SE 32 50 17 27 1028.1 1028.1 0.0
23/08:00pm 13.5 6.4 6.6 63 3.3 SE 33 44 18 24 1028.0 1028.0 0.0
23/07:30pm 13.6 6.5 6.5 62 3.4 SE 33 48 18 26 1027.8 1027.8 0.0
23/07:00pm 13.3 5.7 5.7 60 3.6 SE 35 46 19 25 1027.5 1027.5 0.0
23/06:30pm 13.7 6.3 6.6 62 3.4 SE 35 44 19 24 1027.1 1027.1 0.0
23/06:00pm 13.7 6.3 6.6 62 3.4 SSE 35 44 19 24 1026.9 1026.9 0.0

Other formats

Comma delimited format used in spreadsheet applications
http://www.bom.gov.au/fwo/IDW60801/IDW60801.94601.axf

JavaScript Object Notation format (JSON) in row-major order
http://www.bom.gov.au/fwo/IDW60801/IDW60801.94601.json

Data quality

Most of these data are generated automatically and are frequently updated. Quality checks on data are not normally performed. It is possible for incorrect values to appear. Refer to information at About Latest Weather Observations and please check the disclaimer before using these data.